Time;durP1;ratioP1;P1;durP2;ratioP2;P2;SDS_P1;SDS_P2;PMS_P1;PMS_P2;Temp;Humidity;BMP_temperature;BMP_pressure;BME280_temperature;BME280_humidity;BME280_pressure;Samples;Min_cycle;Max_cycle;Signal;HPM_P1;HPM_P2
2023/05/18 00:03:58;;;;;;;1.75;1.00;;;16.70;82.80;;;;;;10911836;32;20049;-73
2023/05/18 00:10:00;;;;;;;1.45;1.10;;;16.60;82.80;;;;;;10910588;32;20011;-73
2023/05/18 00:16:02;;;;;;;1.17;1.08;;;16.60;82.80;;;;;;10911354;32;20020;-73
2023/05/18 00:22:06;;;;;;;2.30;0.75;;;16.50;82.80;;;;;;10910311;32;20374;-73
2023/05/18 00:28:08;;;;;;;0.68;0.68;;;16.40;82.90;;;;;;10910521;32;20326;-73
2023/05/18 00:34:12;;;;;;;0.80;0.80;;;16.40;83.00;;;;;;10910905;32;20397;-73
2023/05/18 00:40:15;;;;;;;0.82;0.75;;;16.30;83.00;;;;;;10909967;32;20050;-73
2023/05/18 00:46:17;;;;;;;0.70;0.70;;;16.20;83.10;;;;;;10909254;32;20023;-73
2023/05/18 00:52:27;;;;;;;2.75;1.40;;;16.20;83.10;;;;;;10909664;32;20023;-73
2023/05/18 00:58:30;;;;;;;1.10;1.05;;;16.20;83.00;;;;;;10907593;32;20050;-73
2023/05/18 01:04:41;;;;;;;1.12;1.00;;;16.10;83.00;;;;;;10907765;32;20016;-73
2023/05/18 01:10:45;;;;;;;0.68;0.62;;;16.10;82.80;;;;;;10905210;32;20356;-73
2023/05/18 01:17:32;;;;;;;0.77;0.77;;;16.00;82.90;;;;;;10909278;32;20310;-73
2023/05/18 01:23:55;;;;;;;4.68;0.98;;;15.90;82.80;;;;;;10904925;32;20023;-73
2023/05/18 01:29:57;;;;;;;1.10;0.90;;;15.80;82.90;;;;;;10904229;32;20027;-73
2023/05/18 01:36:00;;;;;;;0.90;0.80;;;15.80;82.90;;;;;;10902959;32;20061;-73
2023/05/18 01:42:09;;;;;;;1.10;0.88;;;15.80;83.00;;;;;;10903685;32;20019;-73
2023/05/18 01:48:15;;;;;;;1.23;1.12;;;15.70;83.00;;;;;;10898162;32;20081;-73
2023/05/18 01:54:21;;;;;;;1.23;0.90;;;15.70;83.00;;;;;;10888200;32;20054;-73
2023/05/18 02:00:23;;;;;;;1.10;1.00;;;15.60;82.90;;;;;;10907325;32;20024;-73
2023/05/18 02:06:25;;;;;;;0.93;0.93;;;15.60;82.80;;;;;;10907534;32;20033;-73
2023/05/18 02:12:36;;;;;;;1.42;1.25;;;15.60;82.70;;;;;;10906932;32;20309;-73
2023/05/18 02:18:38;;;;;;;0.80;0.80;;;15.50;82.70;;;;;;10903070;32;20073;-73
2023/05/18 02:24:45;;;;;;;2.15;1.27;;;15.40;82.80;;;;;;10907034;32;20370;-73
2023/05/18 02:30:47;;;;;;;0.95;0.95;;;15.40;82.90;;;;;;10905497;32;20381;-73
2023/05/18 02:36:50;;;;;;;0.70;0.70;;;15.30;82.70;;;;;;10905834;32;20050;-73
2023/05/18 02:42:52;;;;;;;2.05;1.00;;;15.30;82.80;;;;;;10906382;32;20016;-74
2023/05/18 02:48:55;;;;;;;1.73;0.93;;;15.30;82.90;;;;;;10905028;32;20027;-73
2023/05/18 02:54:57;;;;;;;1.10;1.00;;;15.20;82.80;;;;;;10904128;32;20019;-73
2023/05/18 03:01:02;;;;;;;0.93;0.93;;;15.20;82.80;;;;;;10904597;32;20397;-73
2023/05/18 03:07:06;;;;;;;1.35;1.17;;;15.20;82.80;;;;;;10901522;32;20057;-73
2023/05/18 03:13:09;;;;;;;1.35;1.25;;;15.10;82.90;;;;;;10904844;32;20046;-73
2023/05/18 03:19:14;;;;;;;1.15;1.10;;;15.00;82.90;;;;;;10903948;32;20505;-73
2023/05/18 03:25:16;;;;;;;3.10;1.00;;;15.00;82.80;;;;;;10903036;32;20030;-73
2023/05/18 03:31:19;;;;;;;1.52;1.17;;;15.00;82.70;;;;;;10905152;32;20338;-73
2023/05/18 03:37:21;;;;;;;2.08;1.30;;;14.90;82.60;;;;;;10903610;32;20019;-73
2023/05/18 03:43:28;;;;;;;1.42;1.33;;;14.90;82.60;;;;;;10902526;32;20054;-73
2023/05/18 03:49:32;;;;;;;3.80;1.40;;;14.90;82.60;;;;;;10899573;32;20024;-73
2023/05/18 03:55:35;;;;;;;2.15;1.40;;;14.80;82.70;;;;;;10903352;32;20039;-73
2023/05/18 04:01:40;;;;;;;2.33;1.90;;;14.70;82.70;;;;;;10901935;32;20058;-73
2023/05/18 04:07:42;;;;;;;1.30;1.20;;;14.70;82.90;;;;;;10904593;32;20428;-73
2023/05/18 04:13:46;;;;;;;1.20;1.10;;;14.80;82.70;;;;;;10903562;32;20050;-73
2023/05/18 04:19:50;;;;;;;2.40;1.10;;;14.80;82.60;;;;;;10903763;32;20019;-73
2023/05/18 04:25:52;;;;;;;1.42;1.33;;;14.80;82.60;;;;;;10904093;32;20042;-73
2023/05/18 04:31:59;;;;;;;1.40;1.25;;;14.80;82.60;;;;;;10903377;32;20019;-73
2023/05/18 04:38:01;;;;;;;1.55;1.45;;;14.90;82.80;;;;;;10909002;32;20152;-73
2023/05/18 04:44:04;;;;;;;1.73;1.55;;;14.90;82.80;;;;;;10909434;32;20061;-73
2023/05/18 04:50:07;;;;;;;3.58;1.67;;;15.00;82.90;;;;;;10909046;32;20063;-73
2023/05/18 04:56:12;;;;;;;2.08;1.60;;;15.10;82.80;;;;;;10907682;32;20113;-73
2023/05/18 05:02:14;;;;;;;1.55;1.40;;;15.20;82.90;;;;;;10909945;32;20432;-73
2023/05/18 05:08:16;;;;;;;1.40;1.30;;;15.20;82.80;;;;;;10908556;32;20019;-74
2023/05/18 05:14:19;;;;;;;1.50;1.40;;;15.30;83.00;;;;;;10908381;32;20050;-73
2023/05/18 05:20:21;;;;;;;1.52;1.40;;;15.30;82.90;;;;;;10909275;32;20045;-73
2023/05/18 05:26:24;;;;;;;1.30;1.20;;;15.40;82.90;;;;;;10908871;32;20028;-73
2023/05/18 05:32:26;;;;;;;1.10;0.95;;;15.50;82.90;;;;;;10907668;32;20345;-73
2023/05/18 05:38:29;;;;;;;1.23;1.12;;;15.70;82.90;;;;;;10919838;32;20058;-73
2023/05/18 05:44:32;;;;;;;3.30;1.87;;;15.80;82.90;;;;;;10907725;32;20038;-73
2023/05/18 05:50:34;;;;;;;1.62;1.48;;;16.00;82.80;;;;;;10907015;32;20024;-73
2023/05/18 05:56:36;;;;;;;1.35;0.93;;;16.10;82.60;;;;;;10905924;32;20534;-73
2023/05/18 06:02:39;;;;;;;1.30;1.20;;;16.20;82.50;;;;;;10906895;32;20074;-73
2023/05/18 06:08:44;;;;;;;2.45;1.00;;;16.30;82.40;;;;;;10915965;32;20014;-74
2023/05/18 06:14:46;;;;;;;0.93;0.85;;;16.50;82.40;;;;;;10902599;32;20027;-73
2023/05/18 06:20:49;;;;;;;1.20;0.90;;;16.70;82.20;;;;;;10901769;32;20070;-73
2023/05/18 06:26:51;;;;;;;1.45;0.90;;;16.80;81.90;;;;;;10907514;32;20007;-73
2023/05/18 06:32:55;;;;;;;0.80;0.80;;;16.80;81.50;;;;;;10906936;32;20275;-75
2023/05/18 06:38:57;;;;;;;1.33;1.23;;;16.80;81.20;;;;;;10905867;32;20432;-76
2023/05/18 06:45:00;;;;;;;2.37;1.23;;;16.90;80.30;;;;;;10902303;32;20020;-75
2023/05/18 06:51:03;;;;;;;1.23;1.05;;;16.90;78.70;;;;;;10905447;32;20032;-73
2023/05/18 06:57:05;;;;;;;3.12;1.52;;;17.00;78.50;;;;;;10905767;32;20310;-74
2023/05/18 07:03:08;;;;;;;2.05;1.37;;;17.10;78.20;;;;;;10903420;32;20349;-74
2023/05/18 07:09:10;;;;;;;1.23;1.12;;;17.20;78.50;;;;;;10904908;32;20015;-73
2023/05/18 07:15:12;;;;;;;1.30;1.02;;;17.30;78.60;;;;;;10904833;32;20015;-73
2023/05/18 07:21:15;;;;;;;1.23;0.82;;;17.40;78.00;;;;;;10904715;32;20010;-74
2023/05/18 07:27:17;;;;;;;0.82;0.70;;;17.40;78.20;;;;;;10904653;32;20082;-73
2023/05/18 07:33:19;;;;;;;1.33;0.80;;;17.40;78.40;;;;;;10905170;32;20065;-74
2023/05/18 07:39:27;;;;;;;1.10;0.90;;;17.30;78.40;;;;;;10904823;32;20401;-74
2023/05/18 07:45:29;;;;;;;0.70;0.70;;;17.30;77.90;;;;;;10901410;32;20050;-74
2023/05/18 07:51:31;;;;;;;0.77;0.77;;;17.30;78.10;;;;;;10684918;27;7352171;-74
2023/05/18 07:57:34;;;;;;;1.62;1.00;;;17.30;77.90;;;;;;10903869;32;20027;-73
2023/05/18 08:03:36;;;;;;;1.40;1.10;;;17.30;77.90;;;;;;10900888;32;20042;-74
2023/05/18 08:09:39;;;;;;;1.35;0.75;;;17.40;77.50;;;;;;10905767;32;20050;-73
2023/05/18 08:15:42;;;;;;;1.08;0.88;;;17.50;77.00;;;;;;10909664;32;20058;-73
2023/05/18 08:21:45;;;;;;;1.85;0.98;;;17.70;76.70;;;;;;10906356;32;20023;-74
2023/05/18 08:27:47;;;;;;;1.75;1.05;;;17.70;76.40;;;;;;10910604;32;20357;-75
2023/05/18 08:33:49;;;;;;;1.85;0.90;;;17.80;76.70;;;;;;10909791;32;20081;-75
2023/05/18 08:39:51;;;;;;;0.70;0.70;;;17.90;75.40;;;;;;10908799;32;20019;-75
2023/05/18 08:46:20;;;;;;;1.00;0.80;;;18.20;74.70;;;;;;10907989;32;20019;-74
2023/05/18 08:52:26;;;;;;;0.97;0.70;;;18.30;74.10;;;;;;10910674;32;20021;-72
2023/05/18 08:58:35;;;;;;;2.50;1.25;;;18.30;72.70;;;;;;10907759;32;20027;-75
2023/05/18 09:04:37;;;;;;;1.42;1.33;;;18.30;72.30;;;;;;10906860;32;20024;-74
2023/05/18 09:10:40;;;;;;;1.00;0.90;;;18.30;72.40;;;;;;10907411;32;20085;-74
2023/05/18 09:16:42;;;;;;;1.75;1.20;;;18.60;72.90;;;;;;10904675;32;20054;-72
2023/05/18 09:22:44;;;;;;;6.90;1.15;;;18.90;72.00;;;;;;10908024;32;20042;-74
2023/05/18 09:28:52;;;;;;;2.65;1.23;;;18.90;73.20;;;;;;10905670;32;20027;-73
2023/05/18 09:34:54;;;;;;;1.80;1.05;;;19.10;72.00;;;;;;10908815;32;20011;-73
2023/05/18 09:40:56;;;;;;;1.02;0.80;;;19.10;70.20;;;;;;10901951;32;20070;-74
2023/05/18 09:46:59;;;;;;;1.67;0.80;;;19.20;69.10;;;;;;10905942;32;20326;-74
2023/05/18 09:53:02;;;;;;;1.62;1.08;;;19.30;68.30;;;;;;10907723;32;20050;-74
2023/05/18 09:59:12;;;;;;;1.65;1.23;;;19.30;68.40;;;;;;10906092;32;20031;-73
2023/05/18 10:05:22;;;;;;;1.23;0.90;;;19.30;66.60;;;;;;10901578;32;20062;-73
2023/05/18 10:11:26;;;;;;;1.00;0.85;;;19.30;66.70;;;;;;10903509;32;20034;-72
2023/05/18 10:17:32;;;;;;;2.37;0.93;;;19.40;66.80;;;;;;10906432;32;20031;-74
2023/05/18 10:23:36;;;;;;;1.77;1.15;;;19.50;67.00;;;;;;10904220;32;20306;-74
2023/05/18 10:29:39;;;;;;;1.08;0.75;;;19.60;67.00;;;;;;10904183;32;20046;-73
2023/05/18 10:35:44;;;;;;;1.62;1.00;;;19.60;66.70;;;;;;10905954;32;20436;-72
2023/05/18 10:41:47;;;;;;;1.15;0.80;;;19.70;65.60;;;;;;10904590;32;20045;-74
2023/05/18 10:47:53;;;;;;;1.10;1.00;;;19.70;64.30;;;;;;10901864;32;20325;-73
2023/05/18 10:54:09;;;;;;;0.98;0.90;;;19.70;64.80;;;;;;10901503;32;20058;-73
2023/05/18 11:00:12;;;;;;;2.20;1.15;;;19.60;65.40;;;;;;10904459;32;20023;-74
2023/05/18 11:06:22;;;;;;;1.15;0.90;;;19.60;65.70;;;;;;10905391;32;20023;-72
2023/05/18 11:12:24;;;;;;;0.88;0.88;;;19.80;66.10;;;;;;10869038;32;20031;-74
2023/05/18 11:18:37;;;;;;;1.55;1.00;;;19.90;66.60;;;;;;10884116;32;20426;-74
2023/05/18 11:24:41;;;;;;;2.35;1.25;;;20.00;65.70;;;;;;10867222;32;20526;-74
2023/05/18 11:30:45;;;;;;;4.60;1.58;;;20.10;64.90;;;;;;10867866;32;20046;-73
2023/05/18 11:36:55;;;;;;;1.02;0.62;;;20.20;66.30;;;;;;10863713;32;20032;-74
2023/05/18 11:42:58;;;;;;;1.70;1.23;;;20.30;65.20;;;;;;10868164;32;20023;-74
2023/05/18 11:49:22;;;;;;;1.35;0.93;;;20.40;65.30;;;;;;10880166;32;20073;-73
2023/05/18 11:55:37;;;;;;;1.67;0.80;;;20.40;63.80;;;;;;10909776;32;20039;-74
2023/05/18 12:01:40;;;;;;;1.15;0.70;;;20.40;63.90;;;;;;10909457;32;20050;-74
2023/05/18 12:07:43;;;;;;;3.00;0.95;;;20.50;63.90;;;;;;10912480;32;20027;-74
2023/05/18 12:13:45;;;;;;;1.90;1.12;;;20.60;63.20;;;;;;10911129;32;20042;-74
2023/05/18 12:19:48;;;;;;;3.03;1.33;;;20.70;63.60;;;;;;10910679;32;20065;-74
2023/05/18 12:25:51;;;;;;;1.58;0.82;;;20.70;63.20;;;;;;10911344;32;20028;-74
2023/05/18 12:31:53;;;;;;;1.10;0.70;;;20.70;64.10;;;;;;10910512;32;20023;-74
2023/05/18 12:37:59;;;;;;;3.00;1.75;;;20.80;63.30;;;;;;10910934;32;20046;-74
2023/05/18 12:44:01;;;;;;;5.75;3.08;;;20.80;63.00;;;;;;10909868;32;20299;-74
2023/05/18 12:50:03;;;;;;;1.87;1.10;;;20.90;63.20;;;;;;10909988;32;20321;-74
2023/05/18 12:56:08;;;;;;;1.65;0.95;;;21.10;62.30;;;;;;10909478;32;20346;-73
2023/05/18 13:02:31;;;;;;;1.98;1.25;;;21.20;61.90;;;;;;10909527;32;20047;-72
2023/05/18 13:08:34;;;;;;;1.33;0.90;;;21.10;64.20;;;;;;10909116;32;20011;-73
2023/05/18 13:14:40;;;;;;;2.65;1.25;;;21.20;63.90;;;;;;10909736;32;20311;-73
2023/05/18 13:20:48;;;;;;;0.60;0.60;;;21.40;62.60;;;;;;10908774;32;20042;-74
2023/05/18 13:26:50;;;;;;;1.70;1.08;;;21.40;62.90;;;;;;10907142;32;20508;-73
2023/05/18 13:32:52;;;;;;;1.60;1.08;;;21.50;63.40;;;;;;10900843;32;20432;-75
2023/05/18 13:38:54;;;;;;;2.95;1.52;;;21.60;63.50;;;;;;10898921;32;20050;-73
2023/05/18 13:44:56;;;;;;;1.98;1.15;;;21.80;63.20;;;;;;10890327;32;20032;-74
2023/05/18 13:50:59;;;;;;;1.15;0.85;;;21.80;62.20;;;;;;10871897;32;20077;-73
2023/05/18 13:57:01;;;;;;;1.55;0.80;;;21.70;62.00;;;;;;10886980;32;20334;-74
2023/05/18 14:03:03;;;;;;;3.92;1.33;;;21.50;62.40;;;;;;10901137;32;20035;-74
2023/05/18 14:09:05;;;;;;;2.47;1.42;;;21.60;61.30;;;;;;10904281;32;20035;-74
2023/05/18 14:15:08;;;;;;;1.60;1.00;;;21.50;60.30;;;;;;10897233;32;20055;-74
2023/05/18 14:21:10;;;;;;;2.50;1.10;;;21.70;60.40;;;;;;10903042;32;20031;-74
2023/05/18 14:27:11;;;;;;;4.05;1.05;;;21.70;60.10;;;;;;10906525;32;20034;-74
2023/05/18 14:33:13;;;;;;;1.12;0.77;;;21.70;59.90;;;;;;10904165;32;20050;-74
2023/05/18 14:39:15;;;;;;;2.58;1.08;;;21.70;61.40;;;;;;10905885;32;20330;-75
2023/05/18 14:45:18;;;;;;;1.48;0.88;;;21.80;61.00;;;;;;10906593;32;20302;-74
2023/05/18 14:51:20;;;;;;;1.23;1.05;;;21.80;61.40;;;;;;10904047;32;20389;-75
2023/05/18 14:57:22;;;;;;;1.95;1.25;;;21.80;61.80;;;;;;10899055;32;20070;-74
2023/05/18 15:03:24;;;;;;;1.50;0.90;;;21.80;61.60;;;;;;10905805;32;20024;-74
2023/05/18 15:09:26;;;;;;;1.00;0.80;;;21.80;61.40;;;;;;10905813;32;20015;-74
2023/05/18 15:15:28;;;;;;;1.62;0.90;;;21.80;61.50;;;;;;10905500;32;20019;-74
2023/05/18 15:21:30;;;;;;;4.05;1.35;;;21.90;61.30;;;;;;10903935;32;20019;-74
2023/05/18 15:27:33;;;;;;;1.10;0.70;;;21.80;61.80;;;;;;10903979;32;20015;-74
2023/05/18 15:33:40;;;;;;;0.50;0.50;;;21.70;62.00;;;;;;10904207;32;20019;-74
2023/05/18 15:39:42;;;;;;;1.70;1.08;;;21.80;61.90;;;;;;10890744;32;20043;-74
2023/05/18 15:45:45;;;;;;;1.33;0.93;;;21.80;62.00;;;;;;10904767;32;20058;-72
2023/05/18 15:51:55;;;;;;;2.65;1.25;;;21.70;62.10;;;;;;10907316;27;20054;-74
2023/05/18 15:58:17;;;;;;;2.37;1.15;;;21.70;62.50;;;;;;10900837;32;20442;-73
2023/05/18 16:04:19;;;;;;;1.48;0.73;;;21.60;62.50;;;;;;10904583;32;20046;-74
2023/05/18 16:10:30;;;;;;;1.45;1.30;;;21.60;62.60;;;;;;10903861;32;20016;-74
2023/05/18 16:16:44;;;;;;;1.83;0.98;;;21.60;62.20;;;;;;10904359;32;20019;-74
2023/05/18 16:22:46;;;;;;;3.17;1.35;;;21.60;62.10;;;;;;10903540;32;20050;-74
2023/05/18 16:28:49;;;;;;;1.05;0.62;;;21.60;61.90;;;;;;10904304;32;20058;-74
2023/05/18 16:35:14;;;;;;;1.77;1.23;;;21.50;61.90;;;;;;10910873;32;20059;-74
2023/05/18 16:41:16;;;;;;;1.70;1.20;;;21.50;62.30;;;;;;10910843;32;20424;-74
2023/05/18 16:47:18;;;;;;;1.40;0.85;;;21.40;62.30;;;;;;10910512;32;20322;-74
2023/05/18 16:53:20;;;;;;;1.62;1.17;;;21.40;62.60;;;;;;10909589;32;20089;-74
2023/05/18 16:59:23;;;;;;;2.95;0.88;;;21.40;62.90;;;;;;10894755;32;20039;-74
2023/05/18 17:05:25;;;;;;;1.12;0.90;;;21.30;62.90;;;;;;10905498;32;20023;-74
2023/05/18 17:11:27;;;;;;;1.02;0.60;;;21.30;63.10;;;;;;10909304;32;20050;-74
2023/05/18 17:17:29;;;;;;;2.65;0.98;;;21.30;63.40;;;;;;10908287;32;20389;-74
2023/05/18 17:23:31;;;;;;;0.60;0.60;;;21.30;63.60;;;;;;10910014;32;20089;-74
2023/05/18 17:29:33;;;;;;;1.05;0.65;;;21.20;63.80;;;;;;10894352;32;20057;-74
2023/05/18 17:35:35;;;;;;;1.12;0.80;;;21.20;64.00;;;;;;10908735;32;20046;-74
2023/05/18 17:41:37;;;;;;;3.05;1.37;;;21.10;64.20;;;;;;10906465;32;20035;-74
2023/05/18 17:47:42;;;;;;;1.58;0.75;;;21.00;64.50;;;;;;10908182;32;20431;-74
2023/05/18 17:53:44;;;;;;;1.52;1.00;;;21.00;64.60;;;;;;10907331;32;20439;-74
2023/05/18 17:59:46;;;;;;;0.82;0.70;;;21.00;64.90;;;;;;10895264;32;20385;-74
2023/05/18 18:05:48;;;;;;;1.58;0.85;;;20.90;65.10;;;;;;10907843;32;20023;-74
2023/05/18 18:11:50;;;;;;;1.27;0.68;;;20.80;65.30;;;;;;10906624;32;20055;-74
2023/05/18 18:17:54;;;;;;;1.30;0.98;;;20.80;65.50;;;;;;10892726;32;20061;-74
2023/05/18 18:23:57;;;;;;;2.15;1.23;;;20.80;65.80;;;;;;10905921;32;20020;-74
2023/05/18 18:29:59;;;;;;;2.42;1.40;;;20.70;66.10;;;;;;10892218;32;20023;-74
2023/05/18 18:36:04;;;;;;;2.25;1.45;;;20.60;66.40;;;;;;10891667;32;20070;-74
2023/05/18 18:42:06;;;;;;;1.95;1.08;;;20.60;66.70;;;;;;10905333;32;20015;-74
2023/05/18 18:48:08;;;;;;;2.03;1.30;;;20.50;67.60;;;;;;10905789;32;20047;-74
2023/05/18 18:54:10;;;;;;;1.50;1.10;;;20.30;68.70;;;;;;10891276;32;20081;-74
2023/05/18 19:00:19;;;;;;;1.35;1.00;;;20.30;69.40;;;;;;10901953;32;20023;-74
2023/05/18 19:06:22;;;;;;;3.35;1.40;;;20.20;69.50;;;;;;10888360;32;20047;-74
2023/05/18 19:12:24;;;;;;;1.65;1.00;;;20.20;69.60;;;;;;10905107;32;20389;-74
2023/05/18 19:18:26;;;;;;;1.42;1.30;;;20.20;70.00;;;;;;10904714;32;20015;-74
2023/05/18 19:24:29;;;;;;;1.75;1.48;;;20.20;70.50;;;;;;10905257;32;20019;-74
2023/05/18 19:30:31;;;;;;;2.20;1.35;;;20.10;70.70;;;;;;10905221;32;20077;-74
2023/05/18 19:36:34;;;;;;;2.75;1.27;;;20.10;70.70;;;;;;10903119;32;20031;-74
2023/05/18 19:42:36;;;;;;;2.15;1.40;;;20.20;70.90;;;;;;10900879;32;20045;-74
2023/05/18 19:48:39;;;;;;;1.40;1.27;;;20.20;70.80;;;;;;10904460;32;20046;-74
2023/05/18 19:54:41;;;;;;;5.68;1.85;;;20.10;71.10;;;;;;10903791;32;20432;-74
2023/05/18 20:00:43;;;;;;;5.78;2.37;;;20.10;71.40;;;;;;10904047;32;20031;-74
2023/05/18 20:06:48;;;;;;;2.03;1.20;;;20.00;71.50;;;;;;10908718;32;20023;-74
2023/05/18 20:12:51;;;;;;;3.05;1.45;;;20.00;71.80;;;;;;10899210;32;20019;-74
2023/05/18 20:18:53;;;;;;;2.90;1.95;;;20.00;71.80;;;;;;10894314;32;20019;-73
2023/05/18 20:24:59;;;;;;;7.12;2.20;;;20.00;71.80;;;;;;10910737;32;20032;-74
2023/05/18 20:31:02;;;;;;;2.37;1.42;;;19.90;71.70;;;;;;10911075;32;20443;-74
2023/05/18 20:37:06;;;;;;;6.60;2.95;;;20.00;71.80;;;;;;10907567;32;20023;-74
2023/05/18 20:43:10;;;;;;;5.35;3.08;;;19.90;71.70;;;;;;10910857;32;20023;-74
2023/05/18 20:49:12;;;;;;;6.50;2.60;;;19.80;72.00;;;;;;10895669;32;20046;-73
2023/05/18 20:55:15;;;;;;;6.68;2.65;;;19.80;71.80;;;;;;10895487;32;20039;-73
2023/05/18 21:01:19;;;;;;;4.53;2.55;;;19.70;71.60;;;;;;10909461;32;20329;-74
2023/05/18 21:07:22;;;;;;;4.05;2.12;;;19.60;71.80;;;;;;10897240;32;20460;-73
2023/05/18 21:13:25;;;;;;;9.10;2.60;;;19.60;72.10;;;;;;10894837;32;20031;-75
2023/05/18 21:19:27;;;;;;;6.85;4.22;;;19.50;72.60;;;;;;10882038;32;20058;-73
2023/05/18 21:25:29;;;;;;;7.47;2.53;;;19.40;72.90;;;;;;10908937;32;20019;-73
2023/05/18 21:31:32;;;;;;;4.72;2.42;;;19.40;73.20;;;;;;10909280;32;20413;-73
2023/05/18 21:37:34;;;;;;;6.47;3.22;;;19.40;73.50;;;;;;10909008;32;20326;-74
2023/05/18 21:43:36;;;;;;;6.60;2.83;;;19.30;73.60;;;;;;10908807;32;20012;-74
2023/05/18 21:49:38;;;;;;;5.25;2.92;;;19.30;73.40;;;;;;10895268;32;20046;-75
2023/05/18 21:55:41;;;;;;;3.75;2.58;;;19.20;73.90;;;;;;10907092;32;20055;-74
2023/05/18 22:01:43;;;;;;;4.60;2.72;;;19.10;73.80;;;;;;10908135;32;20054;-73
2023/05/18 22:07:45;;;;;;;3.92;2.65;;;19.10;74.00;;;;;;10905271;32;20023;-73
2023/05/18 22:13:47;;;;;;;4.87;2.67;;;19.10;74.50;;;;;;10907083;32;20054;-73
2023/05/18 22:19:49;;;;;;;4.30;3.15;;;19.00;74.70;;;;;;10907392;32;20424;-74
2023/05/18 22:25:51;;;;;;;4.45;2.60;;;19.00;74.80;;;;;;10907307;32;20028;-74
2023/05/18 22:31:53;;;;;;;3.62;2.55;;;18.90;74.40;;;;;;10907102;32;20034;-74
2023/05/18 22:37:55;;;;;;;5.62;3.40;;;18.90;74.60;;;;;;10906750;32;20023;-72
2023/05/18 22:43:57;;;;;;;6.50;3.30;;;18.80;74.90;;;;;;10906502;32;20046;-74
2023/05/18 22:49:59;;;;;;;5.72;3.03;;;18.80;75.20;;;;;;10906380;32;20042;-73
2023/05/18 22:56:01;;;;;;;5.22;3.28;;;18.80;74.90;;;;;;10899675;32;20041;-73
2023/05/18 23:02:04;;;;;;;8.75;3.00;;;18.70;75.20;;;;;;10904391;32;20291;-73
2023/05/18 23:08:06;;;;;;;6.07;3.12;;;18.70;75.30;;;;;;10900966;32;20027;-73
2023/05/18 23:14:09;;;;;;;4.97;2.78;;;18.70;75.80;;;;;;10903729;32;20053;-73
2023/05/18 23:20:11;;;;;;;5.18;2.83;;;18.60;76.50;;;;;;10904015;32;20337;-72
2023/05/18 23:26:13;;;;;;;3.47;2.45;;;18.60;76.40;;;;;;10888857;32;20329;-73
2023/05/18 23:32:15;;;;;;;3.47;2.03;;;18.50;76.90;;;;;;10903167;32;20023;-72
2023/05/18 23:38:20;;;;;;;3.62;2.50;;;18.50;77.90;;;;;;10898861;32;20057;-73
2023/05/18 23:44:22;;;;;;;5.22;2.72;;;18.50;78.20;;;;;;10899351;32;20077;-73
2023/05/18 23:50:25;;;;;;;5.53;3.20;;;18.50;77.70;;;;;;10674499;27;7190013;-73
2023/05/18 23:56:28;;;;;;;4.53;2.70;;;18.40;78.00;;;;;;10904727;32;20019;-73
